sensor_id;sensor_type;location;lat;lon;timestamp;P1;durP1;ratioP1;P2;durP2;ratioP2
52432;SDS011;38352;53.244;6.594;2022-11-20T00:00:00;22.13;;;12.45;;
52432;SDS011;38352;53.244;6.594;2022-11-20T00:02:26;24.00;;;12.93;;
52432;SDS011;38352;53.244;6.594;2022-11-20T00:04:53;21.63;;;12.35;;
52432;SDS011;38352;53.244;6.594;2022-11-20T00:07:19;22.17;;;13.00;;
52432;SDS011;38352;53.244;6.594;2022-11-20T00:09:45;22.67;;;11.88;;
52432;SDS011;38352;53.244;6.594;2022-11-20T00:12:11;22.58;;;11.48;;
52432;SDS011;38352;53.244;6.594;2022-11-20T00:14:37;19.67;;;11.75;;
52432;SDS011;38352;53.244;6.594;2022-11-20T00:17:03;25.25;;;12.55;;
52432;SDS011;38352;53.244;6.594;2022-11-20T00:19:29;23.98;;;12.35;;
52432;SDS011;38352;53.244;6.594;2022-11-20T00:21:55;21.73;;;12.38;;
52432;SDS011;38352;53.244;6.594;2022-11-20T00:24:21;20.98;;;11.65;;
52432;SDS011;38352;53.244;6.594;2022-11-20T00:26:47;22.88;;;11.25;;
52432;SDS011;38352;53.244;6.594;2022-11-20T00:29:13;19.30;;;10.82;;
52432;SDS011;38352;53.244;6.594;2022-11-20T00:31:39;20.63;;;11.07;;
52432;SDS011;38352;53.244;6.594;2022-11-20T00:34:05;20.85;;;10.40;;
52432;SDS011;38352;53.244;6.594;2022-11-20T00:36:32;18.30;;;10.20;;
52432;SDS011;38352;53.244;6.594;2022-11-20T00:38:59;19.63;;;10.68;;
52432;SDS011;38352;53.244;6.594;2022-11-20T00:41:26;17.95;;;10.70;;
52432;SDS011;38352;53.244;6.594;2022-11-20T00:43:53;20.33;;;10.50;;
52432;SDS011;38352;53.244;6.594;2022-11-20T00:46:20;18.65;;;10.10;;
52432;SDS011;38352;53.244;6.594;2022-11-20T00:48:47;18.58;;;10.38;;
52432;SDS011;38352;53.244;6.594;2022-11-20T00:51:14;18.70;;;9.85;;
52432;SDS011;38352;53.244;6.594;2022-11-20T00:53:40;17.17;;;9.38;;
52432;SDS011;38352;53.244;6.594;2022-11-20T00:56:07;16.60;;;9.85;;
52432;SDS011;38352;53.244;6.594;2022-11-20T00:58:35;16.08;;;9.30;;
52432;SDS011;38352;53.244;6.594;2022-11-20T01:01:03;16.55;;;8.90;;
52432;SDS011;38352;53.244;6.594;2022-11-20T01:03:32;18.80;;;10.20;;
52432;SDS011;38352;53.244;6.594;2022-11-20T01:05:59;17.27;;;8.45;;
52432;SDS011;38352;53.244;6.594;2022-11-20T01:08:28;17.23;;;8.60;;
52432;SDS011;38352;53.244;6.594;2022-11-20T01:10:58;17.98;;;9.43;;
52432;SDS011;38352;53.244;6.594;2022-11-20T01:13:24;19.38;;;10.05;;
52432;SDS011;38352;53.244;6.594;2022-11-20T01:16:06;15.75;;;9.30;;
52432;SDS011;38352;53.244;6.594;2022-11-20T01:18:32;16.63;;;9.82;;
52432;SDS011;38352;53.244;6.594;2022-11-20T01:21:02;17.67;;;9.15;;
52432;SDS011;38352;53.244;6.594;2022-11-20T01:23:30;17.15;;;9.10;;
52432;SDS011;38352;53.244;6.594;2022-11-20T01:25:56;16.88;;;8.90;;
52432;SDS011;38352;53.244;6.594;2022-11-20T01:28:22;16.52;;;9.23;;
52432;SDS011;38352;53.244;6.594;2022-11-20T01:30:48;17.00;;;9.00;;
52432;SDS011;38352;53.244;6.594;2022-11-20T01:33:14;16.38;;;9.13;;
52432;SDS011;38352;53.244;6.594;2022-11-20T01:35:40;16.60;;;8.98;;
52432;SDS011;38352;53.244;6.594;2022-11-20T01:38:06;17.45;;;10.20;;
52432;SDS011;38352;53.244;6.594;2022-11-20T01:40:32;17.80;;;9.02;;
52432;SDS011;38352;53.244;6.594;2022-11-20T01:43:06;18.23;;;9.32;;
52432;SDS011;38352;53.244;6.594;2022-11-20T01:48:22;14.75;;;8.98;;
52432;SDS011;38352;53.244;6.594;2022-11-20T01:50:49;16.88;;;9.50;;
52432;SDS011;38352;53.244;6.594;2022-11-20T01:53:16;14.93;;;9.02;;
52432;SDS011;38352;53.244;6.594;2022-11-20T01:55:46;15.98;;;9.07;;
52432;SDS011;38352;53.244;6.594;2022-11-20T01:58:13;18.50;;;9.70;;
52432;SDS011;38352;53.244;6.594;2022-11-20T02:00:40;19.10;;;9.13;;
52432;SDS011;38352;53.244;6.594;2022-11-20T02:03:09;17.38;;;9.43;;
52432;SDS011;38352;53.244;6.594;2022-11-20T02:08:06;18.50;;;9.43;;
52432;SDS011;38352;53.244;6.594;2022-11-20T02:10:33;17.95;;;8.82;;
52432;SDS011;38352;53.244;6.594;2022-11-20T02:12:59;13.88;;;8.30;;
52432;SDS011;38352;53.244;6.594;2022-11-20T02:15:44;16.30;;;8.70;;
52432;SDS011;38352;53.244;6.594;2022-11-20T02:18:10;17.20;;;9.18;;
52432;SDS011;38352;53.244;6.594;2022-11-20T02:20:37;15.73;;;8.52;;
52432;SDS011;38352;53.244;6.594;2022-11-20T02:23:16;17.60;;;8.75;;
52432;SDS011;38352;53.244;6.594;2022-11-20T02:25:46;15.75;;;8.38;;
52432;SDS011;38352;53.244;6.594;2022-11-20T02:28:12;14.32;;;8.07;;
52432;SDS011;38352;53.244;6.594;2022-11-20T02:30:38;18.02;;;8.63;;
52432;SDS011;38352;53.244;6.594;2022-11-20T02:33:04;14.65;;;7.95;;
52432;SDS011;38352;53.244;6.594;2022-11-20T02:37:57;18.33;;;8.95;;
52432;SDS011;38352;53.244;6.594;2022-11-20T02:40:24;16.98;;;8.20;;
52432;SDS011;38352;53.244;6.594;2022-11-20T02:42:57;13.95;;;7.72;;
52432;SDS011;38352;53.244;6.594;2022-11-20T02:45:23;15.60;;;8.57;;
52432;SDS011;38352;53.244;6.594;2022-11-20T02:47:49;16.90;;;8.57;;
52432;SDS011;38352;53.244;6.594;2022-11-20T02:50:15;14.57;;;8.63;;
52432;SDS011;38352;53.244;6.594;2022-11-20T02:52:41;15.77;;;8.85;;
52432;SDS011;38352;53.244;6.594;2022-11-20T02:55:08;16.05;;;9.20;;
52432;SDS011;38352;53.244;6.594;2022-11-20T02:57:34;15.32;;;8.25;;
52432;SDS011;38352;53.244;6.594;2022-11-20T03:00:00;16.15;;;8.82;;
52432;SDS011;38352;53.244;6.594;2022-11-20T03:02:29;16.95;;;7.85;;
52432;SDS011;38352;53.244;6.594;2022-11-20T03:04:55;14.68;;;8.10;;
52432;SDS011;38352;53.244;6.594;2022-11-20T03:07:21;18.42;;;10.65;;
52432;SDS011;38352;53.244;6.594;2022-11-20T03:09:47;13.98;;;8.20;;
52432;SDS011;38352;53.244;6.594;2022-11-20T03:12:13;14.90;;;8.75;;
52432;SDS011;38352;53.244;6.594;2022-11-20T03:14:39;17.23;;;9.50;;
52432;SDS011;38352;53.244;6.594;2022-11-20T03:17:05;15.65;;;9.05;;
52432;SDS011;38352;53.244;6.594;2022-11-20T03:19:31;13.75;;;8.70;;
52432;SDS011;38352;53.244;6.594;2022-11-20T03:21:59;15.30;;;8.63;;
52432;SDS011;38352;53.244;6.594;2022-11-20T03:24:25;17.52;;;9.60;;
52432;SDS011;38352;53.244;6.594;2022-11-20T03:26:51;12.02;;;7.80;;
52432;SDS011;38352;53.244;6.594;2022-11-20T03:29:17;14.15;;;8.10;;
52432;SDS011;38352;53.244;6.594;2022-11-20T03:31:43;15.10;;;8.40;;
52432;SDS011;38352;53.244;6.594;2022-11-20T03:34:10;15.85;;;9.63;;
52432;SDS011;38352;53.244;6.594;2022-11-20T03:36:39;14.10;;;7.97;;
52432;SDS011;38352;53.244;6.594;2022-11-20T03:39:06;16.17;;;7.72;;
52432;SDS011;38352;53.244;6.594;2022-11-20T03:41:35;16.92;;;8.40;;
52432;SDS011;38352;53.244;6.594;2022-11-20T03:44:03;14.75;;;8.05;;
52432;SDS011;38352;53.244;6.594;2022-11-20T03:46:29;13.93;;;7.53;;
52432;SDS011;38352;53.244;6.594;2022-11-20T03:48:56;15.45;;;8.30;;
52432;SDS011;38352;53.244;6.594;2022-11-20T03:51:23;15.00;;;8.55;;
52432;SDS011;38352;53.244;6.594;2022-11-20T03:53:50;15.90;;;9.15;;
52432;SDS011;38352;53.244;6.594;2022-11-20T03:56:17;14.88;;;8.50;;
52432;SDS011;38352;53.244;6.594;2022-11-20T03:58:43;16.77;;;7.95;;
52432;SDS011;38352;53.244;6.594;2022-11-20T04:01:13;16.25;;;8.70;;
52432;SDS011;38352;53.244;6.594;2022-11-20T04:03:40;15.88;;;8.82;;
52432;SDS011;38352;53.244;6.594;2022-11-20T04:06:17;14.88;;;8.40;;
52432;SDS011;38352;53.244;6.594;2022-11-20T04:08:43;14.30;;;7.97;;
52432;SDS011;38352;53.244;6.594;2022-11-20T04:13:39;16.55;;;9.10;;
52432;SDS011;38352;53.244;6.594;2022-11-20T04:16:06;14.93;;;9.00;;
52432;SDS011;38352;53.244;6.594;2022-11-20T04:18:32;16.50;;;8.52;;
52432;SDS011;38352;53.244;6.594;2022-11-20T04:20:58;13.32;;;8.20;;
52432;SDS011;38352;53.244;6.594;2022-11-20T04:23:25;17.52;;;8.30;;
52432;SDS011;38352;53.244;6.594;2022-11-20T04:25:51;14.07;;;8.02;;
52432;SDS011;38352;53.244;6.594;2022-11-20T04:28:17;13.32;;;7.43;;
52432;SDS011;38352;53.244;6.594;2022-11-20T04:30:43;16.38;;;9.02;;
52432;SDS011;38352;53.244;6.594;2022-11-20T04:33:09;15.82;;;8.55;;
52432;SDS011;38352;53.244;6.594;2022-11-20T04:35:36;14.52;;;8.10;;
52432;SDS011;38352;53.244;6.594;2022-11-20T04:38:02;14.23;;;8.13;;
52432;SDS011;38352;53.244;6.594;2022-11-20T04:40:29;14.57;;;8.77;;
52432;SDS011;38352;53.244;6.594;2022-11-20T04:42:55;14.43;;;8.15;;
52432;SDS011;38352;53.244;6.594;2022-11-20T04:45:24;13.93;;;8.25;;
52432;SDS011;38352;53.244;6.594;2022-11-20T04:47:50;15.55;;;8.57;;
52432;SDS011;38352;53.244;6.594;2022-11-20T04:50:16;13.77;;;7.93;;
52432;SDS011;38352;53.244;6.594;2022-11-20T04:52:42;15.55;;;8.45;;
52432;SDS011;38352;53.244;6.594;2022-11-20T04:55:08;14.45;;;7.93;;
52432;SDS011;38352;53.244;6.594;2022-11-20T04:57:34;12.35;;;7.65;;
52432;SDS011;38352;53.244;6.594;2022-11-20T05:00:00;15.43;;;8.43;;
52432;SDS011;38352;53.244;6.594;2022-11-20T05:02:26;15.25;;;8.10;;
52432;SDS011;38352;53.244;6.594;2022-11-20T05:04:52;14.15;;;7.47;;
52432;SDS011;38352;53.244;6.594;2022-11-20T05:07:18;15.15;;;7.70;;
52432;SDS011;38352;53.244;6.594;2022-11-20T05:09:44;15.48;;;8.07;;
52432;SDS011;38352;53.244;6.594;2022-11-20T05:12:11;17.05;;;8.48;;
52432;SDS011;38352;53.244;6.594;2022-11-20T05:14:37;16.02;;;8.25;;
52432;SDS011;38352;53.244;6.594;2022-11-20T05:17:03;13.32;;;8.35;;
52432;SDS011;38352;53.244;6.594;2022-11-20T05:19:29;13.40;;;7.88;;
52432;SDS011;38352;53.244;6.594;2022-11-20T05:21:55;15.50;;;7.97;;
52432;SDS011;38352;53.244;6.594;2022-11-20T05:24:21;13.60;;;8.15;;
52432;SDS011;38352;53.244;6.594;2022-11-20T05:26:47;13.32;;;7.57;;
52432;SDS011;38352;53.244;6.594;2022-11-20T05:29:13;15.35;;;9.07;;
52432;SDS011;38352;53.244;6.594;2022-11-20T05:31:39;13.52;;;7.68;;
52432;SDS011;38352;53.244;6.594;2022-11-20T05:34:06;14.88;;;9.15;;
52432;SDS011;38352;53.244;6.594;2022-11-20T05:36:33;14.45;;;9.05;;
52432;SDS011;38352;53.244;6.594;2022-11-20T05:38:59;15.23;;;8.90;;
52432;SDS011;38352;53.244;6.594;2022-11-20T05:41:25;16.30;;;8.75;;
52432;SDS011;38352;53.244;6.594;2022-11-20T05:43:51;14.82;;;7.85;;
52432;SDS011;38352;53.244;6.594;2022-11-20T05:46:19;15.10;;;8.57;;
52432;SDS011;38352;53.244;6.594;2022-11-20T05:48:45;13.75;;;8.35;;
52432;SDS011;38352;53.244;6.594;2022-11-20T05:51:13;15.93;;;8.25;;
52432;SDS011;38352;53.244;6.594;2022-11-20T05:53:39;13.40;;;7.95;;
52432;SDS011;38352;53.244;6.594;2022-11-20T05:56:07;13.02;;;7.43;;
52432;SDS011;38352;53.244;6.594;2022-11-20T05:58:35;15.65;;;9.07;;
52432;SDS011;38352;53.244;6.594;2022-11-20T06:01:08;14.23;;;7.75;;
52432;SDS011;38352;53.244;6.594;2022-11-20T06:03:35;15.20;;;8.52;;
52432;SDS011;38352;53.244;6.594;2022-11-20T06:06:01;16.02;;;8.38;;
52432;SDS011;38352;53.244;6.594;2022-11-20T06:08:27;14.82;;;7.93;;
52432;SDS011;38352;53.244;6.594;2022-11-20T06:10:53;15.20;;;7.90;;
52432;SDS011;38352;53.244;6.594;2022-11-20T06:13:19;12.95;;;7.47;;
52432;SDS011;38352;53.244;6.594;2022-11-20T06:15:49;15.85;;;7.20;;
52432;SDS011;38352;53.244;6.594;2022-11-20T06:18:15;14.95;;;7.97;;
52432;SDS011;38352;53.244;6.594;2022-11-20T06:20:41;13.73;;;7.72;;
52432;SDS011;38352;53.244;6.594;2022-11-20T06:23:08;12.40;;;7.13;;
52432;SDS011;38352;53.244;6.594;2022-11-20T06:25:36;12.55;;;7.75;;
52432;SDS011;38352;53.244;6.594;2022-11-20T06:28:03;13.35;;;7.63;;
52432;SDS011;38352;53.244;6.594;2022-11-20T06:30:29;14.52;;;7.70;;
52432;SDS011;38352;53.244;6.594;2022-11-20T06:32:55;13.00;;;7.40;;
52432;SDS011;38352;53.244;6.594;2022-11-20T06:35:21;13.60;;;7.45;;
52432;SDS011;38352;53.244;6.594;2022-11-20T06:37:47;14.82;;;8.25;;
52432;SDS011;38352;53.244;6.594;2022-11-20T06:40:13;14.23;;;8.32;;
52432;SDS011;38352;53.244;6.594;2022-11-20T06:42:40;16.58;;;7.63;;
52432;SDS011;38352;53.244;6.594;2022-11-20T06:45:06;13.55;;;7.65;;
52432;SDS011;38352;53.244;6.594;2022-11-20T06:47:32;14.93;;;7.65;;
52432;SDS011;38352;53.244;6.594;2022-11-20T06:49:58;13.70;;;7.45;;
52432;SDS011;38352;53.244;6.594;2022-11-20T06:52:24;13.93;;;7.72;;
52432;SDS011;38352;53.244;6.594;2022-11-20T06:54:50;14.50;;;8.25;;
52432;SDS011;38352;53.244;6.594;2022-11-20T06:57:16;12.10;;;6.65;;
52432;SDS011;38352;53.244;6.594;2022-11-20T06:59:42;12.23;;;7.10;;
52432;SDS011;38352;53.244;6.594;2022-11-20T07:02:11;14.45;;;7.13;;
52432;SDS011;38352;53.244;6.594;2022-11-20T07:04:38;16.98;;;8.05;;
52432;SDS011;38352;53.244;6.594;2022-11-20T07:07:04;15.48;;;8.13;;
52432;SDS011;38352;53.244;6.594;2022-11-20T07:09:31;14.85;;;8.88;;
52432;SDS011;38352;53.244;6.594;2022-11-20T07:11:57;13.52;;;8.20;;
52432;SDS011;38352;53.244;6.594;2022-11-20T07:14:23;14.57;;;8.23;;
52432;SDS011;38352;53.244;6.594;2022-11-20T07:16:49;12.23;;;7.55;;
52432;SDS011;38352;53.244;6.594;2022-11-20T07:19:15;15.63;;;8.45;;
52432;SDS011;38352;53.244;6.594;2022-11-20T07:21:43;16.42;;;7.97;;
52432;SDS011;38352;53.244;6.594;2022-11-20T07:24:09;16.90;;;8.38;;
52432;SDS011;38352;53.244;6.594;2022-11-20T07:26:35;16.38;;;8.93;;
52432;SDS011;38352;53.244;6.594;2022-11-20T07:29:01;16.45;;;8.70;;
52432;SDS011;38352;53.244;6.594;2022-11-20T07:31:27;12.85;;;7.75;;
52432;SDS011;38352;53.244;6.594;2022-11-20T07:33:53;16.48;;;9.13;;
52432;SDS011;38352;53.244;6.594;2022-11-20T07:36:19;13.82;;;8.27;;
52432;SDS011;38352;53.244;6.594;2022-11-20T07:38:45;13.95;;;8.45;;
52432;SDS011;38352;53.244;6.594;2022-11-20T07:41:11;14.85;;;8.35;;
52432;SDS011;38352;53.244;6.594;2022-11-20T07:43:37;14.00;;;8.00;;
52432;SDS011;38352;53.244;6.594;2022-11-20T07:46:03;14.30;;;7.82;;
52432;SDS011;38352;53.244;6.594;2022-11-20T07:48:29;14.10;;;8.40;;
52432;SDS011;38352;53.244;6.594;2022-11-20T07:50:56;16.85;;;8.48;;
52432;SDS011;38352;53.244;6.594;2022-11-20T07:53:22;20.40;;;8.68;;
52432;SDS011;38352;53.244;6.594;2022-11-20T07:55:48;15.68;;;7.93;;
52432;SDS011;38352;53.244;6.594;2022-11-20T07:58:17;14.30;;;8.95;;
52432;SDS011;38352;53.244;6.594;2022-11-20T08:00:44;14.13;;;8.18;;
52432;SDS011;38352;53.244;6.594;2022-11-20T08:03:10;15.63;;;8.30;;
52432;SDS011;38352;53.244;6.594;2022-11-20T08:05:36;14.93;;;8.38;;
52432;SDS011;38352;53.244;6.594;2022-11-20T08:08:02;13.90;;;8.32;;
52432;SDS011;38352;53.244;6.594;2022-11-20T08:10:28;16.75;;;8.60;;
52432;SDS011;38352;53.244;6.594;2022-11-20T08:12:54;15.93;;;8.07;;
52432;SDS011;38352;53.244;6.594;2022-11-20T08:15:59;16.92;;;8.52;;
52432;SDS011;38352;53.244;6.594;2022-11-20T08:18:25;15.10;;;9.05;;
52432;SDS011;38352;53.244;6.594;2022-11-20T08:20:51;15.00;;;7.82;;
52432;SDS011;38352;53.244;6.594;2022-11-20T08:23:17;16.10;;;8.40;;
52432;SDS011;38352;53.244;6.594;2022-11-20T08:25:43;18.00;;;8.88;;
52432;SDS011;38352;53.244;6.594;2022-11-20T08:28:09;16.20;;;9.05;;
52432;SDS011;38352;53.244;6.594;2022-11-20T08:30:35;14.63;;;8.07;;
52432;SDS011;38352;53.244;6.594;2022-11-20T08:33:03;16.73;;;9.32;;
52432;SDS011;38352;53.244;6.594;2022-11-20T08:35:36;15.88;;;8.98;;
52432;SDS011;38352;53.244;6.594;2022-11-20T08:38:03;17.05;;;8.52;;
52432;SDS011;38352;53.244;6.594;2022-11-20T08:40:29;13.60;;;7.68;;
52432;SDS011;38352;53.244;6.594;2022-11-20T08:42:55;13.98;;;7.63;;
52432;SDS011;38352;53.244;6.594;2022-11-20T08:45:21;14.05;;;7.43;;
52432;SDS011;38352;53.244;6.594;2022-11-20T08:47:47;14.07;;;7.35;;
52432;SDS011;38352;53.244;6.594;2022-11-20T08:50:14;13.50;;;6.72;;
52432;SDS011;38352;53.244;6.594;2022-11-20T08:52:40;14.07;;;7.07;;
52432;SDS011;38352;53.244;6.594;2022-11-20T08:55:07;13.57;;;7.68;;
52432;SDS011;38352;53.244;6.594;2022-11-20T08:57:34;14.65;;;8.15;;
52432;SDS011;38352;53.244;6.594;2022-11-20T09:00:00;14.50;;;8.85;;
52432;SDS011;38352;53.244;6.594;2022-11-20T09:02:26;15.32;;;7.82;;
52432;SDS011;38352;53.244;6.594;2022-11-20T09:04:52;12.45;;;7.10;;
52432;SDS011;38352;53.244;6.594;2022-11-20T09:07:19;12.73;;;7.93;;
52432;SDS011;38352;53.244;6.594;2022-11-20T09:09:45;14.07;;;7.55;;
52432;SDS011;38352;53.244;6.594;2022-11-20T09:12:11;14.60;;;7.95;;
52432;SDS011;38352;53.244;6.594;2022-11-20T09:14:37;14.40;;;7.88;;
52432;SDS011;38352;53.244;6.594;2022-11-20T09:17:03;15.35;;;8.18;;
52432;SDS011;38352;53.244;6.594;2022-11-20T09:19:29;15.35;;;8.07;;
52432;SDS011;38352;53.244;6.594;2022-11-20T09:21:55;16.08;;;8.30;;
52432;SDS011;38352;53.244;6.594;2022-11-20T09:24:21;16.08;;;8.75;;
52432;SDS011;38352;53.244;6.594;2022-11-20T09:26:47;15.52;;;8.57;;
52432;SDS011;38352;53.244;6.594;2022-11-20T09:29:13;15.73;;;8.80;;
52432;SDS011;38352;53.244;6.594;2022-11-20T09:31:39;13.85;;;8.25;;
52432;SDS011;38352;53.244;6.594;2022-11-20T09:34:05;14.50;;;8.60;;
52432;SDS011;38352;53.244;6.594;2022-11-20T09:36:31;14.30;;;8.63;;
52432;SDS011;38352;53.244;6.594;2022-11-20T09:38:57;15.30;;;9.02;;
52432;SDS011;38352;53.244;6.594;2022-11-20T09:49:01;14.20;;;8.57;;
52432;SDS011;38352;53.244;6.594;2022-11-20T09:56:41;15.70;;;8.43;;
52432;SDS011;38352;53.244;6.594;2022-11-20T09:59:13;20.60;;;9.18;;
52432;SDS011;38352;53.244;6.594;2022-11-20T10:01:40;14.07;;;8.48;;
52432;SDS011;38352;53.244;6.594;2022-11-20T10:04:18;15.00;;;8.82;;
52432;SDS011;38352;53.244;6.594;2022-11-20T10:07:02;14.77;;;8.85;;
52432;SDS011;38352;53.244;6.594;2022-11-20T10:09:31;15.43;;;8.93;;
52432;SDS011;38352;53.244;6.594;2022-11-20T10:17:11;14.55;;;8.27;;
52432;SDS011;38352;53.244;6.594;2022-11-20T10:20:27;15.55;;;8.48;;
52432;SDS011;38352;53.244;6.594;2022-11-20T10:28:03;15.43;;;8.80;;
52432;SDS011;38352;53.244;6.594;2022-11-20T10:30:34;15.20;;;7.90;;
52432;SDS011;38352;53.244;6.594;2022-11-20T10:33:10;15.38;;;7.85;;
52432;SDS011;38352;53.244;6.594;2022-11-20T10:35:40;13.57;;;7.53;;
52432;SDS011;38352;53.244;6.594;2022-11-20T10:38:19;13.43;;;7.95;;
52432;SDS011;38352;53.244;6.594;2022-11-20T10:40:48;16.10;;;7.65;;
52432;SDS011;38352;53.244;6.594;2022-11-20T10:43:16;13.35;;;7.53;;
52432;SDS011;38352;53.244;6.594;2022-11-20T10:48:17;13.60;;;8.18;;
52432;SDS011;38352;53.244;6.594;2022-11-20T10:51:07;13.88;;;6.95;;
52432;SDS011;38352;53.244;6.594;2022-11-20T10:53:44;14.63;;;7.70;;
52432;SDS011;38352;53.244;6.594;2022-11-20T10:58:40;14.30;;;7.63;;
52432;SDS011;38352;53.244;6.594;2022-11-20T11:01:14;14.20;;;6.85;;
52432;SDS011;38352;53.244;6.594;2022-11-20T11:03:40;11.32;;;6.90;;
52432;SDS011;38352;53.244;6.594;2022-11-20T11:06:10;12.13;;;7.22;;
52432;SDS011;38352;53.244;6.594;2022-11-20T11:08:39;14.52;;;7.03;;
52432;SDS011;38352;53.244;6.594;2022-11-20T11:11:27;11.25;;;7.05;;
52432;SDS011;38352;53.244;6.594;2022-11-20T11:13:51;12.30;;;7.10;;
52432;SDS011;38352;53.244;6.594;2022-11-20T11:16:22;12.20;;;6.82;;
52432;SDS011;38352;53.244;6.594;2022-11-20T11:18:48;12.70;;;7.45;;
52432;SDS011;38352;53.244;6.594;2022-11-20T11:21:20;12.50;;;7.18;;
52432;SDS011;38352;53.244;6.594;2022-11-20T11:23:48;13.50;;;6.93;;
52432;SDS011;38352;53.244;6.594;2022-11-20T11:26:22;11.43;;;7.22;;
52432;SDS011;38352;53.244;6.594;2022-11-20T11:28:59;11.75;;;6.72;;
52432;SDS011;38352;53.244;6.594;2022-11-20T11:31:26;11.73;;;7.15;;
52432;SDS011;38352;53.244;6.594;2022-11-20T11:34:03;12.20;;;6.65;;
52432;SDS011;38352;53.244;6.594;2022-11-20T11:36:29;14.45;;;7.28;;
52432;SDS011;38352;53.244;6.594;2022-11-20T11:38:55;13.93;;;7.13;;
52432;SDS011;38352;53.244;6.594;2022-11-20T11:41:25;13.43;;;6.78;;
52432;SDS011;38352;53.244;6.594;2022-11-20T11:43:54;10.93;;;6.13;;
52432;SDS011;38352;53.244;6.594;2022-11-20T11:46:40;13.30;;;6.85;;
52432;SDS011;38352;53.244;6.594;2022-11-20T11:54:35;13.82;;;7.40;;
52432;SDS011;38352;53.244;6.594;2022-11-20T11:57:05;10.80;;;6.15;;
52432;SDS011;38352;53.244;6.594;2022-11-20T11:59:40;11.60;;;6.72;;
52432;SDS011;38352;53.244;6.594;2022-11-20T12:04:57;15.27;;;7.07;;
52432;SDS011;38352;53.244;6.594;2022-11-20T12:09:56;11.80;;;6.35;;
52432;SDS011;38352;53.244;6.594;2022-11-20T12:12:25;11.23;;;6.50;;
52432;SDS011;38352;53.244;6.594;2022-11-20T12:14:53;12.50;;;6.60;;
52432;SDS011;38352;53.244;6.594;2022-11-20T12:17:20;11.38;;;5.32;;
52432;SDS011;38352;53.244;6.594;2022-11-20T12:19:46;11.10;;;5.82;;
52432;SDS011;38352;53.244;6.594;2022-11-20T12:30:12;9.05;;;5.15;;
52432;SDS011;38352;53.244;6.594;2022-11-20T12:37:55;10.32;;;5.20;;
52432;SDS011;38352;53.244;6.594;2022-11-20T12:48:41;9.73;;;5.18;;
52432;SDS011;38352;53.244;6.594;2022-11-20T12:51:30;8.55;;;5.30;;
52432;SDS011;38352;53.244;6.594;2022-11-20T12:56:46;8.32;;;4.65;;
52432;SDS011;38352;53.244;6.594;2022-11-20T13:01:47;11.45;;;5.32;;
52432;SDS011;38352;53.244;6.594;2022-11-20T13:07:01;8.30;;;5.05;;
52432;SDS011;38352;53.244;6.594;2022-11-20T13:09:28;10.02;;;4.63;;
52432;SDS011;38352;53.244;6.594;2022-11-20T13:12:00;8.82;;;4.53;;
52432;SDS011;38352;53.244;6.594;2022-11-20T13:14:31;8.20;;;4.28;;
52432;SDS011;38352;53.244;6.594;2022-11-20T13:17:00;8.32;;;4.55;;
52432;SDS011;38352;53.244;6.594;2022-11-20T13:19:28;11.35;;;5.65;;
52432;SDS011;38352;53.244;6.594;2022-11-20T13:21:54;10.15;;;4.65;;
52432;SDS011;38352;53.244;6.594;2022-11-20T13:24:22;9.73;;;5.60;;
52432;SDS011;38352;53.244;6.594;2022-11-20T13:29:30;8.15;;;4.45;;
52432;SDS011;38352;53.244;6.594;2022-11-20T13:34:29;7.95;;;4.35;;
52432;SDS011;38352;53.244;6.594;2022-11-20T13:36:56;9.38;;;4.50;;
52432;SDS011;38352;53.244;6.594;2022-11-20T13:39:35;8.50;;;4.60;;
52432;SDS011;38352;53.244;6.594;2022-11-20T13:44:35;7.82;;;4.55;;
52432;SDS011;38352;53.244;6.594;2022-11-20T13:47:03;8.73;;;4.75;;
52432;SDS011;38352;53.244;6.594;2022-11-20T13:49:33;8.88;;;5.07;;
52432;SDS011;38352;53.244;6.594;2022-11-20T13:57:05;8.85;;;4.80;;
52432;SDS011;38352;53.244;6.594;2022-11-20T14:04:47;10.40;;;4.78;;
52432;SDS011;38352;53.244;6.594;2022-11-20T14:07:14;10.32;;;4.65;;
52432;SDS011;38352;53.244;6.594;2022-11-20T14:09:48;7.90;;;4.65;;
52432;SDS011;38352;53.244;6.594;2022-11-20T14:12:15;10.00;;;5.20;;
52432;SDS011;38352;53.244;6.594;2022-11-20T14:14:49;9.68;;;4.70;;
52432;SDS011;38352;53.244;6.594;2022-11-20T14:19:45;11.35;;;5.55;;
52432;SDS011;38352;53.244;6.594;2022-11-20T14:24:43;8.60;;;5.22;;
52432;SDS011;38352;53.244;6.594;2022-11-20T14:27:12;10.48;;;5.30;;
52432;SDS011;38352;53.244;6.594;2022-11-20T14:29:38;9.35;;;5.47;;
52432;SDS011;38352;53.244;6.594;2022-11-20T14:32:05;9.65;;;5.50;;
52432;SDS011;38352;53.244;6.594;2022-11-20T14:34:32;9.35;;;5.40;;
52432;SDS011;38352;53.244;6.594;2022-11-20T14:37:05;9.07;;;5.32;;
52432;SDS011;38352;53.244;6.594;2022-11-20T14:39:35;9.70;;;5.43;;
52432;SDS011;38352;53.244;6.594;2022-11-20T14:42:22;13.32;;;6.38;;
52432;SDS011;38352;53.244;6.594;2022-11-20T14:44:49;10.68;;;5.35;;
52432;SDS011;38352;53.244;6.594;2022-11-20T14:47:19;8.88;;;5.22;;
52432;SDS011;38352;53.244;6.594;2022-11-20T14:49:47;9.50;;;5.22;;
52432;SDS011;38352;53.244;6.594;2022-11-20T14:52:18;8.57;;;4.78;;
52432;SDS011;38352;53.244;6.594;2022-11-20T14:54:55;9.68;;;5.45;;
52432;SDS011;38352;53.244;6.594;2022-11-20T14:57:28;9.45;;;5.57;;
52432;SDS011;38352;53.244;6.594;2022-11-20T15:02:30;10.07;;;5.28;;
52432;SDS011;38352;53.244;6.594;2022-11-20T15:04:57;10.38;;;5.55;;
52432;SDS011;38352;53.244;6.594;2022-11-20T15:07:31;9.57;;;5.72;;
52432;SDS011;38352;53.244;6.594;2022-11-20T15:10:03;10.07;;;6.00;;
52432;SDS011;38352;53.244;6.594;2022-11-20T15:15:45;10.90;;;5.68;;
52432;SDS011;38352;53.244;6.594;2022-11-20T15:18:31;13.02;;;6.18;;
52432;SDS011;38352;53.244;6.594;2022-11-20T15:21:00;10.20;;;6.20;;
52432;SDS011;38352;53.244;6.594;2022-11-20T15:23:27;11.80;;;6.25;;
52432;SDS011;38352;53.244;6.594;2022-11-20T15:31:06;11.52;;;6.78;;
52432;SDS011;38352;53.244;6.594;2022-11-20T15:33:32;12.55;;;6.85;;
52432;SDS011;38352;53.244;6.594;2022-11-20T15:35:59;9.75;;;5.85;;
52432;SDS011;38352;53.244;6.594;2022-11-20T15:38:25;12.15;;;6.90;;
52432;SDS011;38352;53.244;6.594;2022-11-20T15:40:51;12.57;;;7.03;;
52432;SDS011;38352;53.244;6.594;2022-11-20T15:43:17;11.40;;;6.95;;
52432;SDS011;38352;53.244;6.594;2022-11-20T15:45:48;12.60;;;6.72;;
52432;SDS011;38352;53.244;6.594;2022-11-20T15:48:25;11.32;;;6.28;;
52432;SDS011;38352;53.244;6.594;2022-11-20T15:50:54;11.68;;;6.85;;
52432;SDS011;38352;53.244;6.594;2022-11-20T15:53:22;12.77;;;7.18;;
52432;SDS011;38352;53.244;6.594;2022-11-20T15:55:48;13.52;;;7.38;;
52432;SDS011;38352;53.244;6.594;2022-11-20T15:58:15;14.32;;;8.65;;
52432;SDS011;38352;53.244;6.594;2022-11-20T16:00:42;11.93;;;6.93;;
52432;SDS011;38352;53.244;6.594;2022-11-20T16:03:11;13.63;;;7.43;;
52432;SDS011;38352;53.244;6.594;2022-11-20T16:05:37;13.70;;;7.30;;
52432;SDS011;38352;53.244;6.594;2022-11-20T16:08:03;14.48;;;7.70;;
52432;SDS011;38352;53.244;6.594;2022-11-20T16:10:30;13.77;;;7.88;;
52432;SDS011;38352;53.244;6.594;2022-11-20T16:12:56;14.40;;;7.85;;
52432;SDS011;38352;53.244;6.594;2022-11-20T16:15:43;16.65;;;8.70;;
52432;SDS011;38352;53.244;6.594;2022-11-20T16:18:10;15.18;;;8.45;;
52432;SDS011;38352;53.244;6.594;2022-11-20T16:20:37;16.13;;;8.68;;
52432;SDS011;38352;53.244;6.594;2022-11-20T16:23:03;14.27;;;7.47;;
52432;SDS011;38352;53.244;6.594;2022-11-20T16:25:29;15.15;;;8.05;;
52432;SDS011;38352;53.244;6.594;2022-11-20T16:27:55;16.10;;;9.27;;
52432;SDS011;38352;53.244;6.594;2022-11-20T16:30:21;16.45;;;8.23;;
52432;SDS011;38352;53.244;6.594;2022-11-20T16:32:47;12.50;;;7.90;;